Time;durP1;ratioP1;P1;durP2;ratioP2;P2;SDS_P1;SDS_P2;PMS_P1;PMS_P2;Temp;Humidity;BMP_temperature;BMP_pressure;BME280_temperature;BME280_humidity;BME280_pressure;Samples;Min_cycle;Max_cycle;Signal;HPM_P1;HPM_P2
2022/05/18 00:01:16;;;;;;;;;12.75;11.00;;;;;21.97;50.26;99427.91;5079841;27;45472;-63
2022/05/18 00:03:44;;;;;;;;;11.00;11.00;;;;;21.94;50.11;99423.66;5081947;27;45476;-63
2022/05/18 00:06:10;;;;;;;;;14.25;12.00;;;;;21.92;50.62;99434.53;5075841;27;46487;-63
2022/05/18 00:08:36;;;;;;;;;9.00;7.20;;;;;21.88;50.52;99445.63;5080136;27;45384;-63
2022/05/18 00:11:32;;;;;;;;;11.75;10.00;;;;;21.81;50.63;99441.72;5077445;27;45425;-63
2022/05/18 00:13:58;;;;;;;;;12.25;9.00;;;;;21.77;50.61;99441.16;5075704;27;45407;-63
2022/05/18 00:16:26;;;;;;;;;12.25;12.00;;;;;21.74;50.61;99441.41;5075303;28;45469;-63
2022/05/18 00:18:52;;;;;;;;;11.00;10.40;;;;;21.71;51.30;99438.09;5080486;27;45321;-63
2022/05/18 00:21:27;;;;;;;;;10.25;9.25;;;;;21.67;51.10;99440.16;5085413;27;45486;-63
2022/05/18 00:23:53;;;;;;;;;12.25;10.50;;;;;21.64;51.45;99442.25;5074669;27;45443;-63
2022/05/18 00:26:18;;;;;;;;;8.50;8.50;;;;;21.58;51.68;99446.28;5075312;28;46612;-63
2022/05/18 00:28:44;;;;;;;;;12.50;12.00;;;;;21.52;51.74;99450.31;5088341;27;45341;-62
2022/05/18 00:31:12;;;;;;;;;11.75;11.00;;;;;21.46;52.01;99447.25;5075249;28;45353;-62
2022/05/18 00:33:37;;;;;;;;;10.75;9.00;;;;;21.41;52.26;99447.63;5078713;27;45488;-63
2022/05/18 00:36:03;;;;;;;;;11.75;11.00;;;;;21.38;51.86;99447.88;5084059;27;45645;-63
2022/05/18 00:38:29;;;;;;;;;12.00;12.00;;;;;21.37;52.26;99448.00;5079693;27;45459;-63
2022/05/18 00:40:55;;;;;;;;;8.50;8.50;;;;;21.34;52.43;99453.59;5084207;27;45397;-63
2022/05/18 00:43:30;;;;;;;;;12.00;10.50;;;;;21.32;52.32;99453.72;5078506;27;45433;-63
2022/05/18 00:45:57;;;;;;;;;10.00;9.25;;;;;21.29;52.67;99458.47;5076381;27;48042;-63
2022/05/18 00:48:23;;;;;;;;;12.00;10.25;;;;;21.26;52.59;99456.91;5080686;27;45544;-63
2022/05/18 00:50:49;;;;;;;;;9.00;8.75;;;;;21.25;52.62;99455.19;5094731;27;45301;-63
2022/05/18 00:53:41;;;;;;;;;13.50;10.25;;;;;21.22;52.94;99455.44;5079381;27;45558;-63
2022/05/18 00:56:12;;;;;;;;;13.00;11.50;;;;;21.20;53.07;99454.69;5079371;27;45664;-63
2022/05/18 00:58:44;;;;;;;;;15.40;13.00;;;;;21.19;52.78;99458.31;5080551;27;45355;-63
2022/05/18 01:01:10;;;;;;;;;11.00;11.00;;;;;21.17;53.06;99454.88;5084366;27;45372;-63
2022/05/18 01:03:49;;;;;;;;;12.50;10.00;;;;;21.14;53.47;99458.66;5076795;27;45210;-63
2022/05/18 01:06:29;;;;;;;;;12.00;11.25;;;;;21.13;53.35;99465.00;5092829;27;46289;-63
2022/05/18 01:09:26;;;;;;;;;12.00;9.80;;;;;21.11;53.48;99469.66;5088192;27;45249;-63
2022/05/18 01:12:00;;;;;;;;;14.25;10.00;;;;;21.10;53.77;99467.09;5089742;27;45365;-63
2022/05/18 01:14:30;;;;;;;;;13.25;11.75;;;;;21.09;53.96;99471.59;5093346;27;45442;-63
2022/05/18 01:16:56;;;;;;;;;13.50;12.75;;;;;21.08;54.43;99463.66;5094565;27;45492;-63
2022/05/18 01:19:28;;;;;;;;;13.00;12.50;;;;;21.08;54.86;99469.88;5091528;27;45501;-62
2022/05/18 01:22:21;;;;;;;;;14.00;12.25;;;;;21.08;54.83;99460.97;5078208;28;45432;-63
2022/05/18 01:25:35;;;;;;;;;14.25;12.00;;;;;21.06;54.85;99471.81;5089154;27;45310;-63
2022/05/18 01:28:02;;;;;;;;;13.50;12.00;;;;;21.06;55.05;99465.59;5074759;27;45729;-62
2022/05/18 01:30:29;;;;;;;;;12.25;11.00;;;;;21.05;54.64;99469.25;5098009;27;45479;-63
2022/05/18 01:32:57;;;;;;;;;16.50;13.25;;;;;21.04;54.67;99468.41;5097563;27;45479;-62
2022/05/18 01:35:26;;;;;;;;;13.75;11.75;;;;;21.04;54.77;99471.09;5091464;27;45793;-62
2022/05/18 01:37:57;;;;;;;;;11.50;11.00;;;;;21.03;54.58;99468.53;5077663;28;46636;-63
2022/05/18 01:40:41;;;;;;;;;12.60;11.60;;;;;21.03;54.58;99468.53;5091640;27;45491;-63
2022/05/18 01:43:35;;;;;;;;;16.25;12.00;;;;;21.01;54.66;99465.94;5084492;27;45527;-63
2022/05/18 01:46:03;;;;;;;;;17.50;14.00;;;;;21.02;55.09;99477.53;5060344;27;45630;-63
2022/05/18 01:48:35;;;;;;;;;13.75;12.75;;;;;21.01;54.59;99476.69;5082117;27;46631;-63
2022/05/18 01:51:02;;;;;;;;;12.50;12.00;;;;;20.99;54.07;99481.28;5097646;27;45370;-63
2022/05/18 01:53:30;;;;;;;;;11.25;9.25;;;;;20.97;54.01;99477.88;5082298;27;45385;-63
2022/05/18 01:55:56;;;;;;;;;7.25;7.25;;;;;20.96;53.96;99484.22;5084064;27;45605;-63
2022/05/18 01:58:22;;;;;;;;;13.25;11.25;;;;;20.94;54.16;99486.19;5067406;27;47058;-63
2022/05/18 02:00:49;;;;;;;;;13.75;10.25;;;;;20.92;53.85;99485.44;5085056;27;45459;-63
2022/05/18 02:03:16;;;;;;;;;11.00;10.00;;;;;20.90;54.04;99488.25;5080457;27;45497;-63
2022/05/18 02:05:42;;;;;;;;;13.00;12.00;;;;;20.89;54.40;99486.53;5091559;27;45542;-63
2022/05/18 02:08:09;;;;;;;;;11.00;10.50;;;;;20.88;54.28;99495.53;5058825;27;47048;-63
2022/05/18 02:10:35;;;;;;;;;11.50;10.75;;;;;20.86;54.49;99489.44;5092915;27;45357;-63
2022/05/18 02:13:10;;;;;;;;;13.75;12.75;;;;;20.85;54.32;99489.56;5090611;27;45283;-63
2022/05/18 02:15:45;;;;;;;;;11.00;11.00;;;;;20.82;54.72;99487.09;5089481;27;45852;-63
2022/05/18 02:18:10;;;;;;;;;12.00;11.00;;;;;20.79;54.36;99487.31;5095660;27;45434;-63
2022/05/18 02:20:37;;;;;;;;;11.00;10.00;;;;;20.76;54.87;99487.59;5090079;27;45334;-63
2022/05/18 02:23:12;;;;;;;;;13.50;11.00;;;;;20.73;55.16;99491.34;5059920;27;45413;-63
2022/05/18 02:25:38;;;;;;;;;12.75;12.00;;;;;20.71;54.73;99492.44;5097010;27;45462;-63
2022/05/18 02:28:04;;;;;;;;;11.75;11.00;;;;;20.68;54.86;99496.19;5097017;27;45480;-63
2022/05/18 02:30:31;;;;;;;;;12.00;10.25;;;;;20.65;55.14;99496.41;5088594;27;45278;-63
2022/05/18 02:32:56;;;;;;;;;12.00;12.00;;;;;20.62;55.05;99491.28;5077221;28;45274;-63
2022/05/18 02:35:22;;;;;;;;;15.75;11.00;;;;;20.58;55.32;99495.19;5088332;27;45556;-63
2022/05/18 02:37:47;;;;;;;;;15.00;13.75;;;;;20.54;55.73;99489.19;5076517;28;45732;-63
2022/05/18 02:40:15;;;;;;;;;11.25;11.00;;;;;20.53;55.38;99497.34;5091089;27;45478;-63
2022/05/18 02:42:40;;;;;;;;;11.00;10.75;;;;;20.51;56.23;99494.78;5084844;27;45363;-62
2022/05/18 02:45:06;;;;;;;;;12.00;10.25;;;;;20.49;56.17;99491.38;5093775;27;45551;-63
2022/05/18 02:47:32;;;;;;;;;13.00;12.50;;;;;20.46;55.97;99498.75;5085363;27;45642;-63
2022/05/18 02:50:07;;;;;;;;;11.25;11.25;;;;;20.46;55.88;99498.75;5085599;27;45416;-63
2022/05/18 02:52:34;;;;;;;;;13.00;11.25;;;;;20.43;56.01;99494.53;5096954;27;45498;-63
2022/05/18 02:57:44;;;;;;;;;12.50;12.50;;;;;20.40;56.37;99501.91;5076521;28;45769;-62
2022/05/18 03:00:11;;;;;;;;;13.25;12.00;;;;;20.37;56.40;99497.66;5086583;27;45438;-63
2022/05/18 03:02:38;;;;;;;;;14.00;11.00;;;;;20.34;56.33;99500.50;5094327;27;45487;-63
2022/05/18 03:05:04;;;;;;;;;10.75;10.25;;;;;20.33;56.69;99503.28;5083858;27;45405;-63
2022/05/18 03:07:30;;;;;;;;;11.00;9.50;;;;;20.32;56.68;99501.59;5078937;27;45432;-63
2022/05/18 03:09:55;;;;;;;;;13.25;10.75;;;;;20.31;56.95;99500.72;5096098;27;45437;-63
2022/05/18 03:12:21;;;;;;;;;13.00;11.00;;;;;20.29;56.94;99501.81;5093098;27;45560;-63
2022/05/18 03:14:46;;;;;;;;;11.50;10.75;;;;;20.28;57.01;99505.44;5093545;27;45341;-63
2022/05/18 03:17:13;;;;;;;;;13.00;10.00;;;;;20.27;57.18;99504.63;5080051;27;46387;-63
2022/05/18 03:19:38;;;;;;;;;11.25;10.00;;;;;20.27;57.17;99493.91;5084750;27;45448;-63
2022/05/18 03:25:06;;;;;;;;;11.75;9.50;;;;;20.29;57.37;99501.81;5091434;27;45419;-62
2022/05/18 03:27:32;;;;;;;;;12.75;12.75;;;;;20.28;57.08;99500.09;5076285;28;46272;-63
2022/05/18 03:29:57;;;;;;;;;13.75;12.00;;;;;20.26;57.28;99512.78;5089400;27;45312;-63
2022/05/18 03:32:23;;;;;;;;;14.50;13.25;;;;;20.26;57.60;99504.75;5095365;27;45471;-63
2022/05/18 03:34:50;;;;;;;;;12.00;12.00;;;;;20.26;57.36;99504.75;5094694;27;45456;-63
2022/05/18 03:37:16;;;;;;;;;11.75;11.75;;;;;20.23;57.36;99504.97;5075799;28;45620;-63
2022/05/18 03:39:43;;;;;;;;;10.25;10.00;;;;;20.20;57.88;99509.56;5081764;27;45405;-63
2022/05/18 03:42:08;;;;;;;;;14.75;11.00;;;;;20.17;57.77;99501.75;5074228;28;45380;-62
2022/05/18 03:44:34;;;;;;;;;13.25;11.50;;;;;20.16;57.87;99512.56;5088611;27;45426;-63
2022/05/18 03:46:59;;;;;;;;;15.00;12.75;;;;;20.14;57.86;99507.31;5084771;27;48036;-63
2022/05/18 03:49:25;;;;;;;;;14.00;13.75;;;;;20.12;57.97;99511.06;5068784;27;45397;-63
2022/05/18 03:52:00;;;;;;;;;13.75;13.00;;;;;20.10;57.46;99516.56;5087399;27;45336;-63
2022/05/18 03:54:26;;;;;;;;;12.75;11.50;;;;;20.08;57.67;99514.97;5094130;27;45340;-63
2022/05/18 03:56:52;;;;;;;;;15.75;13.75;;;;;20.04;57.40;99508.97;5082594;27;46313;-63
2022/05/18 03:59:18;;;;;;;;;11.00;11.00;;;;;20.01;57.71;99511.00;5085808;27;45436;-63
2022/05/18 04:01:43;;;;;;;;;16.00;16.00;;;;;19.99;57.86;99518.28;5081969;27;45452;-63
2022/05/18 04:04:09;;;;;;;;;15.25;12.75;;;;;19.95;57.87;99519.47;5082969;27;45444;-63
2022/05/18 04:06:35;;;;;;;;;13.25;12.75;;;;;19.91;58.17;99521.53;5075163;28;46432;-63
2022/05/18 04:09:00;;;;;;;;;13.00;11.75;;;;;19.89;58.12;99525.28;5088480;27;45381;-63
2022/05/18 04:11:25;;;;;;;;;13.75;13.25;;;;;19.86;57.96;99529.91;5082861;27;45399;-63
2022/05/18 04:13:52;;;;;;;;;15.00;13.00;;;;;19.82;57.94;99532.88;5081332;27;45495;-63
2022/05/18 04:16:18;;;;;;;;;12.50;11.50;;;;;19.81;58.32;99540.06;5078213;27;45444;-63
2022/05/18 04:18:43;;;;;;;;;13.25;12.00;;;;;19.80;58.34;99533.00;5087873;27;45460;-63
2022/05/18 04:21:08;;;;;;;;;12.00;12.00;;;;;19.79;58.33;99535.78;5076700;27;45409;-63
2022/05/18 04:23:37;;;;;;;;;15.75;15.50;;;;;19.76;57.98;99538.69;5079099;27;45254;-63
2022/05/18 04:26:03;;;;;;;;;14.75;14.25;;;;;19.77;58.20;99543.09;5074788;28;45560;-63
2022/05/18 04:28:28;;;;;;;;;13.75;13.75;;;;;19.77;58.16;99541.22;5078711;27;45491;-63
2022/05/18 04:30:54;;;;;;;;;16.75;14.75;;;;;19.78;58.71;99540.28;5083636;27;45477;-63
2022/05/18 04:33:22;;;;;;;;;13.50;12.25;;;;;19.80;58.59;99540.16;5077415;27;45483;-63
2022/05/18 04:35:50;;;;;;;;;14.00;13.25;;;;;19.79;58.80;99541.97;5081420;27;45429;-63
2022/05/18 04:38:16;;;;;;;;;15.25;14.50;;;;;19.81;58.34;99539.19;5088316;27;45391;-63
2022/05/18 04:40:42;;;;;;;;;16.75;16.50;;;;;19.83;58.84;99547.97;5076048;27;45386;-62
2022/05/18 04:43:08;;;;;;;;;21.75;19.50;;;;;19.84;58.54;99547.88;5094286;27;45508;-63
2022/05/18 04:45:34;;;;;;;;;17.00;15.75;;;;;19.87;58.60;99552.16;5090978;27;46200;-63
2022/05/18 04:47:59;;;;;;;;;17.00;16.00;;;;;19.90;58.24;99553.75;5089627;27;45373;-63
2022/05/18 04:50:25;;;;;;;;;17.25;16.25;;;;;19.92;58.33;99560.72;5085946;27;45304;-63
2022/05/18 04:52:50;;;;;;;;;17.50;15.00;;;;;19.93;58.29;99556.22;5057140;28;45505;-63
2022/05/18 04:55:16;;;;;;;;;16.00;15.75;;;;;19.96;58.10;99564.00;5090331;27;46077;-63
2022/05/18 04:57:42;;;;;;;;;23.00;18.50;;;;;19.94;58.30;99564.13;5082989;27;45523;-63
2022/05/18 05:00:12;;;;;;;;;24.25;20.25;;;;;19.96;58.48;99564.00;5087335;27;45475;-63
2022/05/18 05:02:38;;;;;;;;;20.50;18.25;;;;;19.97;58.61;99569.25;5077575;28;45308;-62
2022/05/18 05:05:10;;;;;;;;;16.75;16.00;;;;;19.99;58.55;99561.13;5093573;27;46405;-62
2022/05/18 05:07:35;;;;;;;;;14.25;14.25;;;;;19.98;58.67;99564.75;5077475;28;45495;-62
2022/05/18 05:10:02;;;;;;;;;18.75;18.00;;;;;20.00;58.31;99562.84;5093517;27;45312;-62
2022/05/18 05:12:27;;;;;;;;;23.25;18.00;;;;;20.00;58.36;99558.34;5093079;27;45560;-62
2022/05/18 05:14:53;;;;;;;;;24.67;24.67;;;;;20.03;58.50;99571.50;5090844;27;46459;-62
2022/05/18 05:17:18;;;;;;;;;22.50;18.50;;;;;20.06;59.09;99568.63;5081129;27;45436;-62
2022/05/18 05:19:44;;;;;;;;;26.00;22.75;;;;;20.09;59.11;99565.72;5082028;27;45423;-62
2022/05/18 05:22:09;;;;;;;;;19.25;16.50;;;;;20.11;58.90;99573.63;5059715;28;45441;-62
2022/05/18 05:24:35;;;;;;;;;22.50;20.00;;;;;20.14;58.24;99571.56;5090847;27;46419;-62
2022/05/18 05:27:01;;;;;;;;;20.50;20.00;;;;;20.18;58.53;99570.41;5084000;27;45447;-62
2022/05/18 05:29:26;;;;;;;;;22.00;17.25;;;;;20.21;58.89;99572.84;5095754;27;45461;-64
2022/05/18 05:31:52;;;;;;;;;18.50;16.75;;;;;20.25;58.43;99569.97;5093267;27;45406;-62
2022/05/18 05:34:18;;;;;;;;;18.25;18.25;;;;;20.27;58.74;99576.91;5081543;27;45592;-62
2022/05/18 05:36:43;;;;;;;;;16.50;16.00;;;;;20.31;58.79;99577.53;5082151;27;45518;-62
2022/05/18 05:39:09;;;;;;;;;16.00;15.50;;;;;20.34;58.53;99569.28;5088300;27;45402;-61
2022/05/18 05:41:34;;;;;;;;;16.50;16.50;;;;;20.37;58.69;99569.94;5086620;27;45428;-62
2022/05/18 05:44:00;;;;;;;;;20.00;18.00;;;;;20.41;58.63;99567.91;5059959;27;47818;-62
2022/05/18 05:46:27;;;;;;;;;18.50;17.50;;;;;20.45;58.33;99575.59;5081214;27;45360;-62
2022/05/18 05:48:54;;;;;;;;;21.50;16.75;;;;;20.48;58.43;99572.69;5081666;27;45626;-63
2022/05/18 05:51:19;;;;;;;;;17.25;16.00;;;;;20.53;58.14;99581.25;5045011;27;45936;-63
2022/05/18 05:53:46;;;;;;;;;23.25;19.50;;;;;20.58;57.94;99578.25;5077646;27;46353;-62
2022/05/18 05:56:15;;;;;;;;;20.50;17.00;;;;;20.63;57.91;99581.41;5082229;27;45400;-63
2022/05/18 05:58:43;;;;;;;;;25.75;22.00;;;;;20.66;58.08;99575.84;5097387;27;45377;-62
2022/05/18 06:01:10;;;;;;;;;30.50;23.00;;;;;20.68;57.38;99578.41;5085465;27;46411;-63
2022/05/18 06:03:36;;;;;;;;;25.25;21.25;;;;;20.71;57.68;99580.84;5059590;27;47644;-62
2022/05/18 06:06:03;;;;;;;;;22.50;21.00;;;;;20.76;57.48;99574.19;5079500;27;45341;-63
2022/05/18 06:08:30;;;;;;;;;24.00;19.50;;;;;20.81;57.33;99574.69;5076230;27;45321;-63
2022/05/18 06:10:55;;;;;;;;;21.75;20.75;;;;;20.87;57.85;99568.88;5087963;27;45349;-63
2022/05/18 06:13:21;;;;;;;;;24.75;22.75;;;;;20.92;57.51;99573.91;5079178;27;45373;-63
2022/05/18 06:15:47;;;;;;;;;21.00;19.75;;;;;20.97;57.63;99573.53;5083198;27;45305;-63
2022/05/18 06:18:13;;;;;;;;;21.75;21.75;;;;;21.02;57.14;99574.03;5078188;27;45359;-63
2022/05/18 06:20:38;;;;;;;;;19.25;18.75;;;;;21.06;57.72;99568.34;5061173;28;45494;-62
2022/05/18 06:23:08;;;;;;;;;22.00;20.50;;;;;21.12;57.07;99565.16;5076252;27;46007;-62
2022/05/18 06:25:34;;;;;;;;;20.50;18.25;;;;;21.17;57.70;99565.69;5090077;27;45372;-63
2022/05/18 06:27:59;;;;;;;;;19.00;17.75;;;;;21.22;57.29;99568.91;5096249;27;45330;-63
2022/05/18 06:30:25;;;;;;;;;18.50;18.50;;;;;21.28;57.07;99559.53;5094222;27;45412;-63
2022/05/18 06:32:50;;;;;;;;;18.00;18.00;;;;;21.33;57.39;99561.84;5086722;27;46246;-63
2022/05/18 06:35:16;;;;;;;;;19.75;19.75;;;;;21.38;57.12;99560.53;5087115;27;45489;-63
2022/05/18 06:37:41;;;;;;;;;15.75;13.00;;;;;21.42;56.80;99558.47;5086791;27;45339;-63
2022/05/18 06:40:08;;;;;;;;;15.75;14.75;;;;;21.45;56.58;99561.75;5089580;27;45467;-63
2022/05/18 06:42:46;;;;;;;;;18.25;17.75;;;;;21.51;56.38;99557.75;5075484;28;46712;-63
2022/05/18 06:45:13;;;;;;;;;15.00;15.00;;;;;21.55;56.27;99560.06;5092828;27;45434;-63
2022/05/18 06:47:39;;;;;;;;;21.00;15.25;;;;;21.61;56.02;99560.56;5088619;27;45415;-63
2022/05/18 06:50:14;;;;;;;;;17.00;15.50;;;;;21.66;56.61;99559.22;5087555;27;45614;-63
2022/05/18 06:52:39;;;;;;;;;13.25;11.75;;;;;21.72;56.55;99563.25;5073697;28;45625;-62
2022/05/18 06:55:05;;;;;;;;;15.25;13.00;;;;;21.77;55.80;99553.03;5084301;27;45455;-63
2022/05/18 06:57:30;;;;;;;;;14.75;14.75;;;;;21.84;55.90;99555.09;5075214;28;45503;-62
2022/05/18 06:59:56;;;;;;;;;18.00;16.00;;;;;21.90;55.99;99557.28;5083410;27;45381;-62
2022/05/18 07:02:22;;;;;;;;;15.50;15.00;;;;;21.96;55.14;99553.25;5080067;27;45362;-62
2022/05/18 07:04:47;;;;;;;;;18.25;15.25;;;;;22.03;55.02;99559.88;5083179;27;45352;-65
2022/05/18 07:07:12;;;;;;;;;14.50;12.75;;;;;22.07;54.67;99553.28;5079943;27;45349;-63
2022/05/18 07:09:38;;;;;;;;;18.75;14.50;;;;;22.12;54.64;99556.44;5087233;27;45382;-63
2022/05/18 07:12:04;;;;;;;;;13.50;13.00;;;;;22.19;54.31;99552.28;5096068;27;46117;-63
2022/05/18 07:14:30;;;;;;;;;14.00;13.50;;;;;22.27;54.29;99543.63;5088182;27;45447;-63
2022/05/18 07:16:56;;;;;;;;;8.50;8.00;;;;;22.35;54.25;99543.84;5056482;28;45473;-62
2022/05/18 07:19:29;;;;;;;;;15.50;14.00;;;;;22.42;53.65;99547.72;5082383;27;45496;-63
2022/05/18 07:21:54;;;;;;;;;13.50;11.00;;;;;22.48;53.70;99543.66;5080776;27;45508;-63
2022/05/18 07:24:21;;;;;;;;;11.75;11.50;;;;;22.54;52.95;99543.19;5085831;27;45447;-62
2022/05/18 07:26:46;;;;;;;;;16.00;14.50;;;;;22.63;52.61;99545.09;5063487;28;45471;-63
2022/05/18 07:29:12;;;;;;;;;14.50;13.00;;;;;22.68;52.49;99545.56;5078240;27;45524;-63
2022/05/18 07:34:22;;;;;;;;;13.80;12.20;;;;;22.80;51.69;99546.41;5083706;27;45403;-63
2022/05/18 07:36:50;;;;;;;;;13.25;10.75;;;;;22.84;52.06;99545.16;5090659;27;45523;-63
2022/05/18 07:39:15;;;;;;;;;13.50;12.00;;;;;22.91;51.29;99549.06;5083966;27;45444;-63
2022/05/18 07:41:41;;;;;;;;;16.50;13.50;;;;;22.96;51.20;99546.81;5088704;27;45584;-63
2022/05/18 07:44:07;;;;;;;;;10.80;10.00;;;;;23.00;51.56;99547.41;5062881;27;45361;-63
2022/05/18 07:46:33;;;;;;;;;16.00;15.00;;;;;23.05;50.89;99545.19;5073559;27;45597;-62
2022/05/18 07:48:58;;;;;;;;;11.50;10.50;;;;;23.11;50.98;99550.94;5082170;27;45474;-62
2022/05/18 07:51:24;;;;;;;;;15.00;12.00;;;;;23.17;50.78;99549.53;5085245;27;46525;-63
2022/05/18 07:53:49;;;;;;;;;16.00;13.75;;;;;23.24;50.28;99548.03;5081293;27;45395;-62
2022/05/18 07:56:15;;;;;;;;;13.25;12.75;;;;;23.29;50.31;99546.63;5084289;27;45381;-62
2022/05/18 07:58:41;;;;;;;;;15.00;12.00;;;;;23.34;50.57;99543.56;5080219;27;45685;-62
2022/05/18 08:01:08;;;;;;;;;13.00;12.00;;;;;23.39;50.33;99545.88;5064732;27;48087;-63
2022/05/18 08:03:42;;;;;;;;;14.80;13.60;;;;;23.45;50.06;99548.88;5066699;27;45594;-64
2022/05/18 08:06:10;;;;;;;;;15.00;12.00;;;;;23.51;50.33;99550.19;5063138;27;45424;-64
2022/05/18 08:08:35;;;;;;;;;14.50;13.25;;;;;23.54;50.57;99542.72;5088597;27;45508;-63
2022/05/18 08:16:31;;;;;;;;;18.50;16.25;;;;;23.61;50.14;99532.28;5085073;27;45424;-64
2022/05/18 08:18:57;;;;;;;;;16.00;14.25;;;;;23.58;50.53;99533.41;5079151;27;45393;-64
2022/05/18 08:21:24;;;;;;;;;16.25;14.00;;;;;23.59;50.00;99534.25;5084398;27;45422;-64
2022/05/18 08:23:49;;;;;;;;;13.25;12.00;;;;;23.58;50.35;99529.88;5080790;27;45554;-64
2022/05/18 08:26:15;;;;;;;;;12.75;12.75;;;;;23.59;50.53;99528.88;5095026;27;45261;-64
2022/05/18 08:28:41;;;;;;;;;11.50;11.50;;;;;23.63;50.12;99520.38;5080917;27;45889;-64
2022/05/18 08:31:17;;;;;;;;;17.25;15.00;;;;;23.69;50.29;99518.16;5093182;27;45798;-64
2022/05/18 08:33:43;;;;;;;;;14.80;13.00;;;;;23.73;50.27;99519.59;5081536;27;45396;-64
2022/05/18 08:36:09;;;;;;;;;14.00;13.25;;;;;23.77;49.92;99521.03;5094663;27;45426;-64
2022/05/18 08:38:35;;;;;;;;;15.00;14.25;;;;;23.80;49.80;99520.72;5080781;27;45529;-62
2022/05/18 08:41:29;;;;;;;;;15.25;15.25;;;;;23.82;49.74;99511.53;5090206;27;45571;-62
2022/05/18 08:44:01;;;;;;;;;15.00;14.25;;;;;23.86;50.05;99518.34;5093095;27;45348;-63
2022/05/18 08:47:12;;;;;;;;;18.50;14.75;;;;;23.90;50.09;99513.56;5084880;27;45412;-62
2022/05/18 08:50:00;;;;;;;;;18.75;16.00;;;;;23.95;49.85;99520.25;5085757;27;45382;-64
2022/05/18 08:52:39;;;;;;;;;16.25;15.25;;;;;24.00;50.08;99512.59;5075246;27;45439;-64
2022/05/18 08:55:41;;;;;;;;;17.50;15.75;;;;;24.08;49.89;99511.06;5085972;27;45485;-62
2022/05/18 08:58:21;;;;;;;;;15.25;13.75;;;;;24.15;49.65;99513.06;5074908;27;45433;-62
2022/05/18 09:00:55;;;;;;;;;16.00;15.00;;;;;24.17;49.46;99507.53;5060921;27;45377;-64
2022/05/18 09:03:54;;;;;;;;;14.00;14.00;;;;;24.18;49.48;99512.78;5076527;27;45202;-63
2022/05/18 09:06:37;;;;;;;;;12.75;12.50;;;;;24.24;49.25;99511.44;5072480;27;45392;-63
2022/05/18 09:11:56;;;;;;;;;15.50;15.50;;;;;24.31;48.66;99513.41;5080794;27;45423;-63
2022/05/18 09:14:27;;;;;;;;;14.00;14.00;;;;;24.38;48.85;99507.47;5081102;27;45339;-63
2022/05/18 09:17:10;;;;;;;;;15.00;11.75;;;;;24.48;48.57;99506.47;5081057;27;45422;-63
2022/05/18 09:20:20;;;;;;;;;14.50;13.00;;;;;24.58;48.17;99506.50;5067868;27;45751;-63
2022/05/18 09:23:20;;;;;;;;;14.00;14.00;;;;;24.64;48.19;99508.63;5023200;28;45223;-63
2022/05/18 09:26:06;;;;;;;;;17.50;12.50;;;;;24.71;47.67;99507.06;5020647;28;46216;-63
2022/05/18 09:28:46;;;;;;;;;15.25;14.75;;;;;24.75;47.44;99508.50;5073642;27;45496;-63
2022/05/18 09:31:53;;;;;;;;;13.25;12.75;;;;;24.82;47.45;99500.69;5084574;27;45380;-63
2022/05/18 09:34:56;;;;;;;;;17.75;14.50;;;;;24.94;47.33;99503.13;5083867;27;45306;-63
2022/05/18 09:37:27;;;;;;;;;22.75;17.75;;;;;25.02;47.10;99502.41;5082730;27;45701;-63
2022/05/18 09:40:11;;;;;;;;;16.00;14.20;;;;;25.12;47.16;99503.25;5096489;27;45442;-63
2022/05/18 09:42:42;;;;;;;;;15.75;15.00;;;;;25.21;46.77;99494.28;5097407;27;45472;-63
2022/05/18 09:45:15;;;;;;;;;19.25;17.50;;;;;25.29;46.37;99486.31;5097223;27;45459;-63
2022/05/18 09:47:54;;;;;;;;;15.50;14.00;;;;;25.38;46.08;99495.38;5097588;27;45325;-63
2022/05/18 09:50:20;;;;;;;;;18.00;16.00;;;;;25.46;46.23;99486.56;5080159;27;45413;-63
2022/05/18 09:52:47;;;;;;;;;15.00;15.00;;;;;25.54;47.00;99483.97;5076025;28;45415;-63
2022/05/18 09:55:16;;;;;;;;;16.75;13.25;;;;;25.62;46.41;99484.97;5075823;28;45436;-63
2022/05/18 09:57:51;;;;;;;;;12.50;12.50;;;;;25.74;45.88;99474.81;5057562;28;46667;-63
2022/05/18 10:00:23;;;;;;;;;17.50;16.25;;;;;25.86;46.06;99486.28;5076200;28;45372;-63
2022/05/18 10:08:32;;;;;;;;;13.75;12.25;;;;;26.01;44.54;99473.97;5076722;28;45894;-64
2022/05/18 10:11:13;;;;;;;;;15.80;13.40;;;;;26.06;44.76;99463.56;5082851;27;45330;-63
2022/05/18 10:13:52;;;;;;;;;13.00;12.25;;;;;26.15;44.78;99462.63;5076694;28;45404;-63
2022/05/18 10:16:28;;;;;;;;;10.25;10.25;;;;;26.24;44.64;99455.47;5084849;27;45364;-63
2022/05/18 10:18:58;;;;;;;;;15.75;12.25;;;;;26.31;44.87;99454.72;5096333;27;45405;-63
2022/05/18 10:22:01;;;;;;;;;14.40;13.60;;;;;26.38;44.01;99449.56;5097105;27;45485;-63
2022/05/18 10:24:36;;;;;;;;;15.50;15.00;;;;;26.42;43.70;99446.41;4994385;28;45455;-63
2022/05/18 10:27:17;;;;;;;;;16.00;13.25;;;;;26.47;43.52;99448.66;5083113;27;45445;-63
2022/05/18 10:29:49;;;;;;;;;12.50;12.50;;;;;26.54;43.74;99444.31;5096213;27;46567;-63
2022/05/18 10:32:24;;;;;;;;;14.40;13.40;;;;;26.63;43.48;99439.84;5096467;27;45353;-63
2022/05/18 10:34:53;;;;;;;;;13.00;10.00;;;;;26.69;43.73;99434.63;5096592;27;45372;-63
2022/05/18 10:37:24;;;;;;;;;10.50;10.00;;;;;26.79;42.92;99436.41;5096882;27;45430;-63
2022/05/18 10:39:50;;;;;;;;;12.00;12.00;;;;;26.87;43.20;99431.06;5096426;27;46566;-63
2022/05/18 10:42:24;;;;;;;;;10.75;10.75;;;;;26.96;42.79;99430.16;5096433;27;45336;-63
2022/05/18 10:44:52;;;;;;;;;15.25;13.00;;;;;27.02;42.83;99435.75;5096543;27;45353;-63
2022/05/18 10:47:29;;;;;;;;;11.75;10.50;;;;;27.06;42.66;99426.34;5087314;27;45497;-63
2022/05/18 10:50:23;;;;;;;;;12.25;10.50;;;;;27.16;42.89;99423.50;5088022;27;46611;-63
2022/05/18 10:53:00;;;;;;;;;12.00;11.40;;;;;27.24;43.21;99420.00;5081161;27;45387;-63
2022/05/18 10:55:29;;;;;;;;;12.00;10.75;;;;;27.32;42.76;99425.47;5075898;28;45401;-63
2022/05/18 10:57:55;;;;;;;;;12.50;11.00;;;;;27.36;42.21;99406.03;5076230;28;45476;-63
2022/05/18 11:00:24;;;;;;;;;11.25;10.25;;;;;27.44;42.61;99413.34;5057344;28;48529;-62
2022/05/18 11:03:15;;;;;;;;;12.40;9.60;;;;;27.55;42.16;99407.66;5075997;28;45419;-62
2022/05/18 11:05:46;;;;;;;;;11.25;8.75;;;;;27.62;42.09;99408.75;5075711;28;45525;-62
2022/05/18 11:08:16;;;;;;;;;10.75;8.75;;;;;27.71;41.83;99404.19;5076292;28;45741;-62
2022/05/18 11:10:49;;;;;;;;;10.00;9.75;;;;;27.72;41.79;99401.31;5082808;27;45435;-62
2022/05/18 11:13:35;;;;;;;;;8.40;8.00;;;;;27.76;41.60;99393.72;5075988;28;45410;-63
2022/05/18 11:16:22;;;;;;;;;8.50;8.50;;;;;27.77;41.86;99390.00;5057141;28;45456;-62
2022/05/18 11:19:07;;;;;;;;;12.50;10.75;;;;;27.82;41.74;99394.94;5075160;28;45335;-64
2022/05/18 11:21:49;;;;;;;;;11.25;10.00;;;;;27.87;41.27;99384.41;5075730;27;46764;-64
2022/05/18 11:24:49;;;;;;;;;10.60;9.80;;;;;27.95;41.50;99382.59;5082241;27;45376;-64
2022/05/18 11:27:53;;;;;;;;;12.00;12.00;;;;;28.05;41.37;99371.59;5095405;27;45416;-64
2022/05/18 11:30:28;;;;;;;;;12.75;11.75;;;;;28.14;41.93;99370.59;4992780;28;45399;-64
2022/05/18 11:33:11;;;;;;;;;15.25;15.25;;;;;28.24;41.39;99363.19;5082955;27;45686;-64
2022/05/18 11:36:10;;;;;;;;;10.80;10.80;;;;;28.31;40.44;99372.34;5096090;27;45310;-62
2022/05/18 11:38:42;;;;;;;;;10.20;9.80;;;;;28.35;40.06;99372.84;5096030;27;45475;-63
2022/05/18 11:41:33;;;;;;;;;6.75;6.75;;;;;28.38;40.35;99365.22;5095550;27;45510;-63
2022/05/18 11:44:04;;;;;;;;;13.50;12.00;;;;;28.45;40.04;99357.25;5095365;27;45417;-64
2022/05/18 11:46:36;;;;;;;;;10.80;8.20;;;;;28.52;39.97;99360.97;5092270;27;45442;-63
2022/05/18 11:49:13;;;;;;;;;10.00;9.00;;;;;28.58;39.92;99354.88;5080127;27;45437;-63
2022/05/18 11:52:05;;;;;;;;;8.75;8.50;;;;;28.63;39.34;99366.06;5090127;27;45344;-63
2022/05/18 11:54:40;;;;;;;;;9.00;7.00;;;;;28.65;39.34;99355.91;5074991;28;46634;-63
2022/05/18 11:57:41;;;;;;;;;8.00;8.00;;;;;28.68;38.50;99352.81;5056823;28;45902;-63
2022/05/18 12:00:12;;;;;;;;;10.00;9.50;;;;;28.75;38.53;99353.00;5075084;28;45399;-63